Terminal Aerodrome Forecast
Issued by NWS Wakefield, VA

Home | Current Version | Previous Version | Text Only | Print | Product List | Glossary On
Versions: 1 2 3 4 5 6 7 8 9 10 11 12 13 14 15 16
613
FTUS41 KAKQ 231159 CCA
TAFRIC
TAF COR
KRIC 231159Z 2312/2412 19003KT 4SM BR OVC070
      TEMPO 2312/2314 P6SM NSW
     FM231400 20005KT P6SM BKN070
     FM231800 21009KT P6SM SCT150
     FM240000 18004KT P6SM SCT200
     FM240600 VRB03KT 2SM BR SCT250=

USA.gov is the U.S. government's official web portal to all federal, state and local government web resources and services.